sensor_id;sensor_type;location;lat;lon;timestamp;pressure;altitude;pressure_sealevel;temperature;humidity
48976;BME280;34791;52.752;8.346;2022-12-05T00:01:50;148447.16;;;3.96;100.00
48976;BME280;34791;52.752;8.346;2022-12-05T00:04:15;148431.75;;;3.90;100.00
48976;BME280;34791;52.752;8.346;2022-12-05T00:06:41;148452.31;;;3.98;100.00
48976;BME280;34791;52.752;8.346;2022-12-05T00:09:08;148452.31;;;3.98;100.00
48976;BME280;34791;52.752;8.346;2022-12-05T00:11:36;148452.31;;;3.98;100.00
48976;BME280;34791;52.752;8.346;2022-12-05T00:14:03;148453.59;;;3.99;100.00
48976;BME280;34791;52.752;8.346;2022-12-05T00:16:31;148443.31;;;3.95;100.00
48976;BME280;34791;52.752;8.346;2022-12-05T00:18:59;148443.31;;;3.95;100.00
48976;BME280;34791;52.752;8.346;2022-12-05T00:21:27;148442.03;;;3.94;100.00
48976;BME280;34791;52.752;8.346;2022-12-05T00:23:55;148442.03;;;3.94;100.00
48976;BME280;34791;52.752;8.346;2022-12-05T00:26:21;148447.16;;;3.96;100.00
48976;BME280;34791;52.752;8.346;2022-12-05T00:28:47;148436.88;;;3.92;100.00
48976;BME280;34791;52.752;8.346;2022-12-05T00:31:18;148436.88;;;3.92;100.00
48976;BME280;34791;52.752;8.346;2022-12-05T00:33:44;148434.31;;;3.91;100.00
48976;BME280;34791;52.752;8.346;2022-12-05T00:36:25;148438.16;;;3.93;100.00
48976;BME280;34791;52.752;8.346;2022-12-05T00:38:51;148433.03;;;3.91;100.00
48976;BME280;34791;52.752;8.346;2022-12-05T00:41:22;148438.16;;;3.93;100.00
48976;BME280;34791;52.752;8.346;2022-12-05T00:43:48;148443.31;;;3.95;100.00
48976;BME280;34791;52.752;8.346;2022-12-05T00:46:25;148438.16;;;3.93;100.00
48976;BME280;34791;52.752;8.346;2022-12-05T00:48:52;148452.31;;;3.98;100.00
48976;BME280;34791;52.752;8.346;2022-12-05T00:51:24;148447.16;;;3.96;100.00
48976;BME280;34791;52.752;8.346;2022-12-05T00:53:52;148439.44;;;3.93;100.00
48976;BME280;34791;52.752;8.346;2022-12-05T00:56:22;148431.75;;;3.90;100.00
48976;BME280;34791;52.752;8.346;2022-12-05T00:58:49;148442.03;;;3.94;100.00
48976;BME280;34791;52.752;8.346;2022-12-05T01:01:31;148449.72;;;3.97;100.00
48976;BME280;34791;52.752;8.346;2022-12-05T01:03:58;148442.03;;;3.94;100.00
48976;BME280;34791;52.752;8.346;2022-12-05T01:06:25;148431.75;;;3.90;100.00
48976;BME280;34791;52.752;8.346;2022-12-05T01:08:53;148422.69;;;3.87;100.00
48976;BME280;34791;52.752;8.346;2022-12-05T01:11:20;148430.44;;;3.90;100.00
48976;BME280;34791;52.752;8.346;2022-12-05T01:13:46;148431.75;;;3.90;100.00
48976;BME280;34791;52.752;8.346;2022-12-05T01:16:26;148421.41;;;3.86;100.00
48976;BME280;34791;52.752;8.346;2022-12-05T01:18:53;148418.84;;;3.85;100.00
48976;BME280;34791;52.752;8.346;2022-12-05T01:21:19;148421.41;;;3.86;100.00
48976;BME280;34791;52.752;8.346;2022-12-05T01:23:44;148429.16;;;3.89;100.00
48976;BME280;34791;52.752;8.346;2022-12-05T01:26:11;148431.75;;;3.90;100.00
48976;BME280;34791;52.752;8.346;2022-12-05T01:28:38;148423.97;;;3.87;100.00
48976;BME280;34791;52.752;8.346;2022-12-05T01:31:06;148418.84;;;3.85;100.00
48976;BME280;34791;52.752;8.346;2022-12-05T01:33:32;148409.84;;;3.81;100.00
48976;BME280;34791;52.752;8.346;2022-12-05T01:35:57;148396.97;;;3.76;100.00
48976;BME280;34791;52.752;8.346;2022-12-05T01:38:23;148403.41;;;3.79;100.00
48976;BME280;34791;52.752;8.346;2022-12-05T01:40:48;148418.84;;;3.85;100.00
48976;BME280;34791;52.752;8.346;2022-12-05T01:43:16;148416.25;;;3.84;100.00
48976;BME280;34791;52.752;8.346;2022-12-05T01:45:44;148418.84;;;3.85;100.00
48976;BME280;34791;52.752;8.346;2022-12-05T01:48:36;148421.41;;;3.86;100.00
48976;BME280;34791;52.752;8.346;2022-12-05T01:51:01;148400.84;;;3.78;100.00
48976;BME280;34791;52.752;8.346;2022-12-05T01:53:28;148398.28;;;3.77;100.00
48976;BME280;34791;52.752;8.346;2022-12-05T01:55:54;148403.41;;;3.79;100.00
48976;BME280;34791;52.752;8.346;2022-12-05T01:58:19;148394.34;;;3.75;100.00
48976;BME280;34791;52.752;8.346;2022-12-05T02:00:46;148393.06;;;3.75;100.00
48976;BME280;34791;52.752;8.346;2022-12-05T02:03:19;148389.22;;;3.73;100.00
48976;BME280;34791;52.752;8.346;2022-12-05T02:05:48;148381.50;;;3.70;100.00
48976;BME280;34791;52.752;8.346;2022-12-05T02:08:14;148382.78;;;3.71;100.00
48976;BME280;34791;52.752;8.346;2022-12-05T02:10:44;148380.22;;;3.70;100.00
48976;BME280;34791;52.752;8.346;2022-12-05T02:16:05;148380.22;;;3.70;100.00
48976;BME280;34791;52.752;8.346;2022-12-05T02:18:59;148369.94;;;3.66;100.00
48976;BME280;34791;52.752;8.346;2022-12-05T02:32:10;148364.78;;;3.64;100.00
48976;BME280;34791;52.752;8.346;2022-12-05T02:35:19;148362.19;;;3.63;100.00
48976;BME280;34791;52.752;8.346;2022-12-05T02:37:53;148359.59;;;3.62;100.00
48976;BME280;34791;52.752;8.346;2022-12-05T02:40:25;148349.31;;;3.58;100.00
48976;BME280;34791;52.752;8.346;2022-12-05T02:43:01;148354.47;;;3.60;100.00
48976;BME280;34791;52.752;8.346;2022-12-05T02:45:31;148350.63;;;3.58;100.00
48976;BME280;34791;52.752;8.346;2022-12-05T02:47:59;148349.31;;;3.58;100.00
48976;BME280;34791;52.752;8.346;2022-12-05T02:50:29;148357.03;;;3.61;100.00
48976;BME280;34791;52.752;8.346;2022-12-05T02:52:57;148351.91;;;3.59;100.00
48976;BME280;34791;52.752;8.346;2022-12-05T02:55:26;148341.63;;;3.55;100.00
48976;BME280;34791;52.752;8.346;2022-12-05T02:57:55;148344.19;;;3.56;100.00
48976;BME280;34791;52.752;8.346;2022-12-05T03:00:22;148345.47;;;3.56;100.00
48976;BME280;34791;52.752;8.346;2022-12-05T03:02:51;148346.75;;;3.57;100.00
48976;BME280;34791;52.752;8.346;2022-12-05T03:08:07;148353.19;;;3.59;100.00
48976;BME280;34791;52.752;8.346;2022-12-05T03:10:36;148353.19;;;3.59;100.00
48976;BME280;34791;52.752;8.346;2022-12-05T03:13:09;148357.03;;;3.61;100.00
48976;BME280;34791;52.752;8.346;2022-12-05T03:15:41;148357.03;;;3.61;100.00
48976;BME280;34791;52.752;8.346;2022-12-05T03:18:14;148346.75;;;3.57;100.00
48976;BME280;34791;52.752;8.346;2022-12-05T03:20:51;148355.75;;;3.60;100.00
48976;BME280;34791;52.752;8.346;2022-12-05T03:23:30;148341.63;;;3.55;100.00
48976;BME280;34791;52.752;8.346;2022-12-05T03:26:09;148345.47;;;3.56;100.00
48976;BME280;34791;52.752;8.346;2022-12-05T03:31:21;148342.91;;;3.55;100.00
48976;BME280;34791;52.752;8.346;2022-12-05T03:33:49;148346.75;;;3.57;100.00
48976;BME280;34791;52.752;8.346;2022-12-05T03:36:28;148341.63;;;3.55;100.00
48976;BME280;34791;52.752;8.346;2022-12-05T03:39:12;148351.91;;;3.59;100.00
48976;BME280;34791;52.752;8.346;2022-12-05T03:44:36;148336.47;;;3.52;100.00
48976;BME280;34791;52.752;8.346;2022-12-05T03:47:18;148341.63;;;3.55;100.00
48976;BME280;34791;52.752;8.346;2022-12-05T03:49:48;148342.91;;;3.55;100.00
48976;BME280;34791;52.752;8.346;2022-12-05T03:52:23;148339.03;;;3.53;100.00
48976;BME280;34791;52.752;8.346;2022-12-05T03:54:56;148333.91;;;3.51;100.00
48976;BME280;34791;52.752;8.346;2022-12-05T03:57:30;148336.47;;;3.52;100.00
48976;BME280;34791;52.752;8.346;2022-12-05T04:00:04;148339.03;;;3.53;100.00
48976;BME280;34791;52.752;8.346;2022-12-05T04:02:45;148353.19;;;3.59;100.00
48976;BME280;34791;52.752;8.346;2022-12-05T04:05:20;148353.19;;;3.59;100.00
48976;BME280;34791;52.752;8.346;2022-12-05T04:08:25;148354.47;;;3.60;100.00
48976;BME280;34791;52.752;8.346;2022-12-05T04:10:55;148357.03;;;3.61;100.00
48976;BME280;34791;52.752;8.346;2022-12-05T04:13:31;148351.91;;;3.59;100.00
48976;BME280;34791;52.752;8.346;2022-12-05T04:16:07;148349.31;;;3.58;100.00
48976;BME280;34791;52.752;8.346;2022-12-05T04:19:16;148348.03;;;3.57;100.00
48976;BME280;34791;52.752;8.346;2022-12-05T04:21:47;148351.91;;;3.59;100.00
48976;BME280;34791;52.752;8.346;2022-12-05T04:24:29;148363.47;;;3.63;100.00
48976;BME280;34791;52.752;8.346;2022-12-05T04:32:23;148380.22;;;3.70;100.00
48976;BME280;34791;52.752;8.346;2022-12-05T04:34:54;148372.50;;;3.67;100.00
48976;BME280;34791;52.752;8.346;2022-12-05T04:37:23;148359.59;;;3.62;100.00
48976;BME280;34791;52.752;8.346;2022-12-05T04:39:57;148367.38;;;3.65;100.00
48976;BME280;34791;52.752;8.346;2022-12-05T04:42:28;148367.38;;;3.65;100.00
48976;BME280;34791;52.752;8.346;2022-12-05T04:44:59;148366.09;;;3.64;100.00
48976;BME280;34791;52.752;8.346;2022-12-05T04:47:30;148369.94;;;3.66;100.00
48976;BME280;34791;52.752;8.346;2022-12-05T04:49:57;148359.59;;;3.62;100.00
48976;BME280;34791;52.752;8.346;2022-12-05T04:52:24;148358.31;;;3.61;100.00
48976;BME280;34791;52.752;8.346;2022-12-05T04:55:08;148357.03;;;3.61;100.00
48976;BME280;34791;52.752;8.346;2022-12-05T05:00:31;148359.59;;;3.62;100.00
48976;BME280;34791;52.752;8.346;2022-12-05T05:03:24;148367.38;;;3.65;100.00
48976;BME280;34791;52.752;8.346;2022-12-05T05:05:53;148359.59;;;3.62;100.00
48976;BME280;34791;52.752;8.346;2022-12-05T05:08:24;148359.59;;;3.62;100.00
48976;BME280;34791;52.752;8.346;2022-12-05T05:11:00;148357.03;;;3.61;100.00
48976;BME280;34791;52.752;8.346;2022-12-05T05:13:28;148360.91;;;3.62;100.00
48976;BME280;34791;52.752;8.346;2022-12-05T05:15:53;148363.47;;;3.63;100.00
48976;BME280;34791;52.752;8.346;2022-12-05T05:18:18;148364.78;;;3.64;100.00
48976;BME280;34791;52.752;8.346;2022-12-05T05:20:44;148364.78;;;3.64;100.00
48976;BME280;34791;52.752;8.346;2022-12-05T05:23:09;148367.38;;;3.65;100.00
48976;BME280;34791;52.752;8.346;2022-12-05T05:25:34;148363.47;;;3.63;100.00
48976;BME280;34791;52.752;8.346;2022-12-05T05:28:00;148380.22;;;3.70;100.00
48976;BME280;34791;52.752;8.346;2022-12-05T05:30:26;148377.66;;;3.69;100.00
48976;BME280;34791;52.752;8.346;2022-12-05T05:32:51;148380.22;;;3.70;100.00
48976;BME280;34791;52.752;8.346;2022-12-05T05:35:17;148377.66;;;3.69;100.00
48976;BME280;34791;52.752;8.346;2022-12-05T05:37:42;148375.09;;;3.68;100.00
48976;BME280;34791;52.752;8.346;2022-12-05T05:40:10;148376.38;;;3.68;100.00
48976;BME280;34791;52.752;8.346;2022-12-05T05:42:40;148367.38;;;3.65;100.00
48976;BME280;34791;52.752;8.346;2022-12-05T05:45:06;148385.38;;;3.72;100.00
48976;BME280;34791;52.752;8.346;2022-12-05T05:47:31;148387.94;;;3.73;100.00
48976;BME280;34791;52.752;8.346;2022-12-05T05:49:56;148381.50;;;3.70;100.00
48976;BME280;34791;52.752;8.346;2022-12-05T05:52:22;148387.94;;;3.73;100.00
48976;BME280;34791;52.752;8.346;2022-12-05T05:54:47;148387.94;;;3.73;100.00
48976;BME280;34791;52.752;8.346;2022-12-05T05:57:12;148387.94;;;3.73;100.00
48976;BME280;34791;52.752;8.346;2022-12-05T05:59:38;148393.06;;;3.75;100.00
48976;BME280;34791;52.752;8.346;2022-12-05T06:02:03;148385.38;;;3.72;100.00
48976;BME280;34791;52.752;8.346;2022-12-05T06:04:28;148387.94;;;3.73;100.00
48976;BME280;34791;52.752;8.346;2022-12-05T06:06:54;148386.66;;;3.72;100.00
48976;BME280;34791;52.752;8.346;2022-12-05T06:09:19;148385.38;;;3.72;100.00
48976;BME280;34791;52.752;8.346;2022-12-05T06:11:44;148385.38;;;3.72;100.00
48976;BME280;34791;52.752;8.346;2022-12-05T06:14:10;148385.38;;;3.72;100.00
48976;BME280;34791;52.752;8.346;2022-12-05T06:16:35;148384.06;;;3.71;100.00
48976;BME280;34791;52.752;8.346;2022-12-05T06:19:01;148387.94;;;3.73;100.00
48976;BME280;34791;52.752;8.346;2022-12-05T06:21:26;148390.50;;;3.74;100.00
48976;BME280;34791;52.752;8.346;2022-12-05T06:23:53;148398.28;;;3.77;100.00
48976;BME280;34791;52.752;8.346;2022-12-05T06:26:19;148398.28;;;3.77;100.00
48976;BME280;34791;52.752;8.346;2022-12-05T06:28:45;148398.28;;;3.77;100.00
48976;BME280;34791;52.752;8.346;2022-12-05T06:31:14;148399.56;;;3.77;100.00
48976;BME280;34791;52.752;8.346;2022-12-05T06:33:39;148403.41;;;3.79;100.00
48976;BME280;34791;52.752;8.346;2022-12-05T06:36:14;148408.53;;;3.81;100.00
48976;BME280;34791;52.752;8.346;2022-12-05T06:38:40;148412.41;;;3.82;100.00
48976;BME280;34791;52.752;8.346;2022-12-05T06:41:08;148407.25;;;3.80;100.00
48976;BME280;34791;52.752;8.346;2022-12-05T06:43:34;148411.13;;;3.82;100.00
48976;BME280;34791;52.752;8.346;2022-12-05T06:46:03;148416.25;;;3.84;100.00
48976;BME280;34791;52.752;8.346;2022-12-05T06:48:29;148411.13;;;3.82;100.00
48976;BME280;34791;52.752;8.346;2022-12-05T06:50:54;148414.97;;;3.83;100.00
48976;BME280;34791;52.752;8.346;2022-12-05T06:53:20;148421.41;;;3.86;100.00
48976;BME280;34791;52.752;8.346;2022-12-05T06:56:03;148429.16;;;3.89;100.00
48976;BME280;34791;52.752;8.346;2022-12-05T06:58:29;148430.44;;;3.90;100.00
48976;BME280;34791;52.752;8.346;2022-12-05T07:00:55;148425.25;;;3.88;100.00
48976;BME280;34791;52.752;8.346;2022-12-05T07:03:39;148426.59;;;3.88;100.00
48976;BME280;34791;52.752;8.346;2022-12-05T07:06:06;148433.03;;;3.91;100.00
48976;BME280;34791;52.752;8.346;2022-12-05T07:08:32;148442.03;;;3.94;100.00
48976;BME280;34791;52.752;8.346;2022-12-05T07:10:58;148435.59;;;3.92;100.00
48976;BME280;34791;52.752;8.346;2022-12-05T07:13:23;148435.59;;;3.92;100.00
48976;BME280;34791;52.752;8.346;2022-12-05T07:15:49;148431.75;;;3.90;100.00
48976;BME280;34791;52.752;8.346;2022-12-05T07:18:15;148439.44;;;3.93;100.00
48976;BME280;34791;52.752;8.346;2022-12-05T07:20:41;148436.88;;;3.92;100.00
48976;BME280;34791;52.752;8.346;2022-12-05T07:23:07;148449.72;;;3.97;100.00
48976;BME280;34791;52.752;8.346;2022-12-05T07:25:33;148448.44;;;3.97;100.00
48976;BME280;34791;52.752;8.346;2022-12-05T07:27:58;148447.16;;;3.96;100.00
48976;BME280;34791;52.752;8.346;2022-12-05T07:30:24;148447.16;;;3.96;100.00
48976;BME280;34791;52.752;8.346;2022-12-05T07:32:49;148457.50;;;4.00;100.00
48976;BME280;34791;52.752;8.346;2022-12-05T07:35:15;148461.34;;;4.02;100.00
48976;BME280;34791;52.752;8.346;2022-12-05T07:37:40;148463.94;;;4.03;100.00
48976;BME280;34791;52.752;8.346;2022-12-05T07:40:06;148461.34;;;4.02;100.00
48976;BME280;34791;52.752;8.346;2022-12-05T07:42:31;148460.06;;;4.01;100.00
48976;BME280;34791;52.752;8.346;2022-12-05T07:44:57;148463.94;;;4.03;100.00
48976;BME280;34791;52.752;8.346;2022-12-05T07:47:22;148463.94;;;4.03;100.00
48976;BME280;34791;52.752;8.346;2022-12-05T07:49:47;148458.78;;;4.01;100.00
48976;BME280;34791;52.752;8.346;2022-12-05T07:52:13;148463.94;;;4.03;100.00
48976;BME280;34791;52.752;8.346;2022-12-05T07:54:38;148469.06;;;4.05;100.00
48976;BME280;34791;52.752;8.346;2022-12-05T07:57:03;148465.22;;;4.03;100.00
48976;BME280;34791;52.752;8.346;2022-12-05T07:59:29;148467.78;;;4.04;100.00
48976;BME280;34791;52.752;8.346;2022-12-05T08:01:54;148467.78;;;4.04;100.00
48976;BME280;34791;52.752;8.346;2022-12-05T08:04:20;148465.22;;;4.03;100.00
48976;BME280;34791;52.752;8.346;2022-12-05T08:06:45;148475.50;;;4.07;100.00
48976;BME280;34791;52.752;8.346;2022-12-05T08:09:10;148472.94;;;4.06;100.00
48976;BME280;34791;52.752;8.346;2022-12-05T08:11:36;148478.06;;;4.08;100.00
48976;BME280;34791;52.752;8.346;2022-12-05T08:14:03;148484.50;;;4.11;100.00
48976;BME280;34791;52.752;8.346;2022-12-05T08:16:30;148484.50;;;4.11;100.00
48976;BME280;34791;52.752;8.346;2022-12-05T08:19:07;148480.66;;;4.09;100.00
48976;BME280;34791;52.752;8.346;2022-12-05T08:21:33;148483.22;;;4.10;100.00
48976;BME280;34791;52.752;8.346;2022-12-05T08:23:59;148490.97;;;4.14;100.00
48976;BME280;34791;52.752;8.346;2022-12-05T08:26:26;148475.50;;;4.07;100.00
48976;BME280;34791;52.752;8.346;2022-12-05T08:29:00;148485.78;;;4.11;100.00
48976;BME280;34791;52.752;8.346;2022-12-05T08:31:28;148490.97;;;4.14;100.00
48976;BME280;34791;52.752;8.346;2022-12-05T08:33:55;148488.41;;;4.13;100.00
48976;BME280;34791;52.752;8.346;2022-12-05T08:36:21;148492.25;;;4.14;100.00
48976;BME280;34791;52.752;8.346;2022-12-05T08:38:47;148484.50;;;4.11;100.00
48976;BME280;34791;52.752;8.346;2022-12-05T08:41:14;148489.69;;;4.13;100.00
48976;BME280;34791;52.752;8.346;2022-12-05T08:43:40;148493.56;;;4.15;100.00
48976;BME280;34791;52.752;8.346;2022-12-05T08:46:07;148485.78;;;4.11;100.00
48976;BME280;34791;52.752;8.346;2022-12-05T08:48:33;148494.84;;;4.15;100.00
48976;BME280;34791;52.752;8.346;2022-12-05T08:50:59;148487.13;;;4.12;100.00
48976;BME280;34791;52.752;8.346;2022-12-05T08:53:28;148490.97;;;4.14;100.00
48976;BME280;34791;52.752;8.346;2022-12-05T08:55:53;148494.84;;;4.15;100.00
48976;BME280;34791;52.752;8.346;2022-12-05T08:58:19;148496.13;;;4.16;100.00
48976;BME280;34791;52.752;8.346;2022-12-05T09:00:44;148493.56;;;4.15;100.00
48976;BME280;34791;52.752;8.346;2022-12-05T09:03:10;148496.13;;;4.16;100.00
48976;BME280;34791;52.752;8.346;2022-12-05T09:05:36;148497.41;;;4.16;100.00
48976;BME280;34791;52.752;8.346;2022-12-05T09:08:02;148493.56;;;4.15;100.00
48976;BME280;34791;52.752;8.346;2022-12-05T09:10:28;148493.56;;;4.15;100.00
48976;BME280;34791;52.752;8.346;2022-12-05T09:12:53;148501.25;;;4.18;100.00
48976;BME280;34791;52.752;8.346;2022-12-05T09:15:19;148498.69;;;4.17;100.00
48976;BME280;34791;52.752;8.346;2022-12-05T09:17:44;148499.97;;;4.17;100.00
48976;BME280;34791;52.752;8.346;2022-12-05T09:20:10;148508.97;;;4.21;100.00
48976;BME280;34791;52.752;8.346;2022-12-05T09:22:39;148508.97;;;4.21;100.00
48976;BME280;34791;52.752;8.346;2022-12-05T09:25:05;148515.41;;;4.23;100.00
48976;BME280;34791;52.752;8.346;2022-12-05T09:27:30;148532.19;;;4.30;100.00
48976;BME280;34791;52.752;8.346;2022-12-05T09:29:56;148529.59;;;4.29;100.00
48976;BME280;34791;52.752;8.346;2022-12-05T09:32:21;148523.19;;;4.26;100.00
48976;BME280;34791;52.752;8.346;2022-12-05T09:34:46;148525.75;;;4.27;100.00
48976;BME280;34791;52.752;8.346;2022-12-05T09:37:12;148529.59;;;4.29;100.00
48976;BME280;34791;52.752;8.346;2022-12-05T09:39:37;148533.47;;;4.30;100.00
48976;BME280;34791;52.752;8.346;2022-12-05T09:47:34;148537.31;;;4.32;100.00
48976;BME280;34791;52.752;8.346;2022-12-05T09:52:42;148537.31;;;4.32;100.00
48976;BME280;34791;52.752;8.346;2022-12-05T09:55:13;148536.03;;;4.31;100.00
48976;BME280;34791;52.752;8.346;2022-12-05T09:58:01;148539.91;;;4.33;100.00
48976;BME280;34791;52.752;8.346;2022-12-05T10:00:28;148542.47;;;4.34;100.00
48976;BME280;34791;52.752;8.346;2022-12-05T10:16:54;148462.66;;;4.02;100.00
48976;BME280;34791;52.752;8.346;2022-12-05T10:19:28;148447.16;;;3.96;100.00
48976;BME280;34791;52.752;8.346;2022-12-05T10:21:58;148443.31;;;3.95;100.00
48976;BME280;34791;52.752;8.346;2022-12-05T10:27:01;148449.72;;;3.97;100.00
48976;BME280;34791;52.752;8.346;2022-12-05T10:29:34;148451.03;;;3.98;100.00
48976;BME280;34791;52.752;8.346;2022-12-05T10:32:07;148445.88;;;3.96;100.00
48976;BME280;34791;52.752;8.346;2022-12-05T10:34:40;148447.16;;;3.96;100.00
48976;BME280;34791;52.752;8.346;2022-12-05T10:39:44;148457.50;;;4.00;100.00
48976;BME280;34791;52.752;8.346;2022-12-05T10:42:17;148452.31;;;3.98;100.00
48976;BME280;34791;52.752;8.346;2022-12-05T10:44:45;148449.72;;;3.97;100.00
48976;BME280;34791;52.752;8.346;2022-12-05T10:47:12;148447.16;;;3.96;100.00
48976;BME280;34791;52.752;8.346;2022-12-05T10:49:38;148449.72;;;3.97;100.00
48976;BME280;34791;52.752;8.346;2022-12-05T10:52:04;148435.59;;;3.92;100.00
48976;BME280;34791;52.752;8.346;2022-12-05T10:54:36;148447.16;;;3.96;100.00
48976;BME280;34791;52.752;8.346;2022-12-05T10:57:24;148453.59;;;3.99;100.00
48976;BME280;34791;52.752;8.346;2022-12-05T10:59:50;148449.72;;;3.97;100.00
48976;BME280;34791;52.752;8.346;2022-12-05T11:02:21;148457.50;;;4.00;100.00
48976;BME280;34791;52.752;8.346;2022-12-05T11:04:48;148470.34;;;4.05;100.00
48976;BME280;34791;52.752;8.346;2022-12-05T11:10:24;148480.66;;;4.09;100.00
48976;BME280;34791;52.752;8.346;2022-12-05T11:12:50;148476.78;;;4.08;100.00
48976;BME280;34791;52.752;8.346;2022-12-05T11:17:46;148503.84;;;4.19;100.00
48976;BME280;34791;52.752;8.346;2022-12-05T11:22:47;148529.59;;;4.29;100.00
48976;BME280;34791;52.752;8.346;2022-12-05T11:25:31;148516.69;;;4.24;100.00
48976;BME280;34791;52.752;8.346;2022-12-05T11:27:59;148497.41;;;4.16;100.00
48976;BME280;34791;52.752;8.346;2022-12-05T11:30:26;148494.84;;;4.15;100.00
48976;BME280;34791;52.752;8.346;2022-12-05T11:33:18;148480.66;;;4.09;100.00
48976;BME280;34791;52.752;8.346;2022-12-05T11:35:45;148447.16;;;3.96;100.00
48976;BME280;34791;52.752;8.346;2022-12-05T11:38:10;148420.13;;;3.86;100.00
48976;BME280;34791;52.752;8.346;2022-12-05T11:43:40;148387.94;;;3.73;100.00
48976;BME280;34791;52.752;8.346;2022-12-05T11:46:34;148400.84;;;3.78;100.00
48976;BME280;34791;52.752;8.346;2022-12-05T11:51:50;148408.53;;;3.81;100.00
48976;BME280;34791;52.752;8.346;2022-12-05T12:00:03;148375.09;;;3.68;100.00
48976;BME280;34791;52.752;8.346;2022-12-05T12:21:36;148313.28;;;3.43;100.00
48976;BME280;34791;52.752;8.346;2022-12-05T12:24:23;148319.72;;;3.46;100.00
48976;BME280;34791;52.752;8.346;2022-12-05T12:37:47;148256.66;;;3.21;100.00
48976;BME280;34791;52.752;8.346;2022-12-05T12:40:19;148241.19;;;3.15;100.00
48976;BME280;34791;52.752;8.346;2022-12-05T12:50:24;148212.94;;;3.04;100.00
48976;BME280;34791;52.752;8.346;2022-12-05T12:55:45;148206.47;;;3.01;100.00
48976;BME280;34791;52.752;8.346;2022-12-05T12:58:43;148202.59;;;3.00;100.00
48976;BME280;34791;52.752;8.346;2022-12-05T13:03:51;148209.03;;;3.02;100.00
48976;BME280;34791;52.752;8.346;2022-12-05T13:06:28;148207.75;;;3.02;100.00
48976;BME280;34791;52.752;8.346;2022-12-05T13:09:02;148189.75;;;2.94;100.00
48976;BME280;34791;52.752;8.346;2022-12-05T13:11:34;148184.63;;;2.92;100.00
48976;BME280;34791;52.752;8.346;2022-12-05T13:14:01;148179.44;;;2.90;100.00
48976;BME280;34791;52.752;8.346;2022-12-05T13:16:32;148166.59;;;2.85;100.00
48976;BME280;34791;52.752;8.346;2022-12-05T13:18:58;148166.59;;;2.85;100.00
48976;BME280;34791;52.752;8.346;2022-12-05T13:21:25;148169.16;;;2.86;100.00
48976;BME280;34791;52.752;8.346;2022-12-05T13:23:53;148164.03;;;2.84;100.00
48976;BME280;34791;52.752;8.346;2022-12-05T13:26:28;148158.88;;;2.82;100.00
48976;BME280;34791;52.752;8.346;2022-12-05T13:28:57;148148.56;;;2.78;100.00
48976;BME280;34791;52.752;8.346;2022-12-05T13:31:53;148143.44;;;2.76;100.00
48976;BME280;34791;52.752;8.346;2022-12-05T13:37:00;148139.56;;;2.75;100.00
48976;BME280;34791;52.752;8.346;2022-12-05T13:39:55;148125.44;;;2.69;100.00
48976;BME280;34791;52.752;8.346;2022-12-05T13:42:39;148122.88;;;2.68;100.00
48976;BME280;34791;52.752;8.346;2022-12-05T13:45:09;148124.16;;;2.69;100.00
48976;BME280;34791;52.752;8.346;2022-12-05T13:52:53;148122.88;;;2.68;100.00
48976;BME280;34791;52.752;8.346;2022-12-05T13:55:25;148110.00;;;2.63;100.00
48976;BME280;34791;52.752;8.346;2022-12-05T13:57:54;148102.28;;;2.60;100.00
48976;BME280;34791;52.752;8.346;2022-12-05T14:00:23;148092.00;;;2.56;100.00
48976;BME280;34791;52.752;8.346;2022-12-05T14:07:56;148099.72;;;2.59;100.00
48976;BME280;34791;52.752;8.346;2022-12-05T14:15:28;148074.00;;;2.49;100.00
48976;BME280;34791;52.752;8.346;2022-12-05T14:18:09;148071.41;;;2.48;100.00
48976;BME280;34791;52.752;8.346;2022-12-05T14:26:42;148053.41;;;2.41;100.00
48976;BME280;34791;52.752;8.346;2022-12-05T14:32:19;148032.84;;;2.32;100.00
48976;BME280;34791;52.752;8.346;2022-12-05T14:35:16;148031.56;;;2.32;100.00
48976;BME280;34791;52.752;8.346;2022-12-05T14:38:04;148025.09;;;2.29;100.00
48976;BME280;34791;52.752;8.346;2022-12-05T14:43:06;148012.28;;;2.24;100.00
48976;BME280;34791;52.752;8.346;2022-12-05T14:48:27;147999.44;;;2.19;100.00
48976;BME280;34791;52.752;8.346;2022-12-05T14:50:56;147992.97;;;2.17;100.00
48976;BME280;34791;52.752;8.346;2022-12-05T14:59:00;147969.88;;;2.08;100.00
48976;BME280;34791;52.752;8.346;2022-12-05T15:01:28;147973.72;;;2.09;100.00
48976;BME280;34791;52.752;8.346;2022-12-05T15:07:07;147991.69;;;2.16;100.00
48976;BME280;34791;52.752;8.346;2022-12-05T15:09:42;147983.97;;;2.13;100.00
48976;BME280;34791;52.752;8.346;2022-12-05T15:12:14;147986.56;;;2.14;100.00
48976;BME280;34791;52.752;8.346;2022-12-05T15:14:45;147967.31;;;2.07;100.00
48976;BME280;34791;52.752;8.346;2022-12-05T15:17:17;147959.56;;;2.03;100.00
48976;BME280;34791;52.752;8.346;2022-12-05T15:19:58;147949.28;;;1.99;100.00
48976;BME280;34791;52.752;8.346;2022-12-05T15:22:27;147945.44;;;1.98;100.00
48976;BME280;34791;52.752;8.346;2022-12-05T15:24:53;147945.44;;;1.98;100.00
48976;BME280;34791;52.752;8.346;2022-12-05T15:27:19;147939.00;;;1.95;100.00
48976;BME280;34791;52.752;8.346;2022-12-05T15:29:44;147932.56;;;1.93;100.00
48976;BME280;34791;52.752;8.346;2022-12-05T15:34:43;147921.00;;;1.88;100.00
48976;BME280;34791;52.752;8.346;2022-12-05T15:37:14;147906.88;;;1.83;100.00
48976;BME280;34791;52.752;8.346;2022-12-05T15:42:25;147901.69;;;1.81;100.00
48976;BME280;34791;52.752;8.346;2022-12-05T15:44:51;147896.56;;;1.79;100.00
48976;BME280;34791;52.752;8.346;2022-12-05T15:47:24;147892.72;;;1.77;100.00
48976;BME280;34791;52.752;8.346;2022-12-05T15:49:50;147894.00;;;1.77;100.00
48976;BME280;34791;52.752;8.346;2022-12-05T15:52:29;147883.75;;;1.73;100.00